Time;durP1;ratioP1;P1;durP2;ratioP2;P2;SDS_P1;SDS_P2;PMS_P1;PMS_P2;Temp;Humidity;BMP_temperature;BMP_pressure;BME280_temperature;BME280_humidity;BME280_pressure;Samples;Min_cycle;Max_cycle;Signal;HPM_P1;HPM_P2
2023/06/11 00:00:04;;;;;;;15.70;8.93;;;17.20;99.90;;;;;;5072981;28;20036;-62
2023/06/11 00:02:33;;;;;;;15.20;8.63;;;17.20;99.90;;;;;;5072274;28;20037;-62
2023/06/11 00:05:07;;;;;;;16.05;8.23;;;17.20;99.90;;;;;;5071685;28;20048;-62
2023/06/11 00:07:34;;;;;;;12.35;7.50;;;17.20;99.90;;;;;;5038419;28;20094;-62
2023/06/11 00:10:01;;;;;;;13.45;8.80;;;17.20;99.90;;;;;;5054511;28;20036;-62
2023/06/11 00:12:27;;;;;;;15.27;8.30;;;17.30;99.90;;;;;;5071616;28;20032;-62
2023/06/11 00:14:52;;;;;;;13.77;8.88;;;17.30;99.90;;;;;;5054321;28;20443;-62
2023/06/11 00:17:18;;;;;;;15.02;8.15;;;17.30;99.90;;;;;;5041228;28;20398;-62
2023/06/11 00:19:44;;;;;;;12.75;8.60;;;17.30;99.90;;;;;;5051446;28;20116;-62
2023/06/11 00:22:11;;;;;;;14.65;9.20;;;17.30;99.90;;;;;;5052453;28;20045;-62
2023/06/11 00:24:37;;;;;;;11.65;8.73;;;17.30;99.90;;;;;;5052349;28;20141;-62
2023/06/11 00:27:03;;;;;;;16.35;9.18;;;17.30;99.90;;;;;;5051825;28;20029;-62
2023/06/11 00:29:29;;;;;;;14.93;8.50;;;17.30;99.90;;;;;;5034642;28;20037;-62
2023/06/11 00:31:55;;;;;;;14.15;7.85;;;17.40;99.90;;;;;;5034256;28;20041;-62
2023/06/11 00:34:20;;;;;;;11.35;7.70;;;17.30;99.90;;;;;;5033496;28;20059;-62
2023/06/11 00:36:46;;;;;;;15.07;7.75;;;17.30;99.90;;;;;;5052246;28;20041;-62
2023/06/11 00:39:12;;;;;;;17.00;8.55;;;17.40;99.90;;;;;;5052113;28;20076;-62
2023/06/11 00:41:45;;;;;;;11.68;7.88;;;17.40;99.90;;;;;;5033478;28;20083;-62
2023/06/11 00:44:17;;;;;;;15.63;8.32;;;17.40;99.90;;;;;;5017809;28;20099;-62
2023/06/11 00:46:44;;;;;;;14.73;9.00;;;17.40;99.90;;;;;;5033129;28;20064;-62
2023/06/11 00:49:11;;;;;;;12.15;8.73;;;17.40;99.90;;;;;;5051978;28;20041;-62
2023/06/11 00:51:42;;;;;;;16.20;8.73;;;17.50;99.90;;;;;;5034175;28;20119;-62
2023/06/11 00:54:12;;;;;;;10.35;7.82;;;17.50;99.90;;;;;;5033933;28;20391;-62
2023/06/11 00:56:43;;;;;;;15.00;9.27;;;17.50;99.90;;;;;;5034028;28;20045;-62
2023/06/11 00:59:09;;;;;;;14.35;8.00;;;17.50;99.90;;;;;;5034150;28;20128;-62
2023/06/11 01:01:41;;;;;;;13.57;8.55;;;17.50;99.90;;;;;;5051432;28;20112;-62
2023/06/11 01:04:13;;;;;;;13.85;8.52;;;17.50;99.90;;;;;;5049064;28;20390;-62
2023/06/11 01:06:46;;;;;;;14.48;8.90;;;17.40;99.90;;;;;;5053930;28;20060;-62
2023/06/11 01:09:15;;;;;;;15.63;8.30;;;17.40;99.90;;;;;;5052856;28;20036;-62
2023/06/11 01:11:41;;;;;;;14.05;8.30;;;17.40;99.90;;;;;;5041728;28;20409;-62
2023/06/11 01:14:06;;;;;;;11.27;9.20;;;17.40;99.90;;;;;;5034392;28;20112;-62
2023/06/11 01:16:52;;;;;;;12.48;8.25;;;17.40;99.90;;;;;;5033155;28;20378;-62
2023/06/11 01:19:33;;;;;;;12.38;8.30;;;17.40;99.90;;;;;;5033835;28;20041;-62
2023/06/11 01:22:13;;;;;;;12.05;8.75;;;17.30;99.90;;;;;;5033027;28;20060;-62
2023/06/11 01:24:58;;;;;;;13.63;8.27;;;17.30;99.90;;;;;;5051652;28;20049;-62
2023/06/11 01:27:43;;;;;;;14.38;9.25;;;17.30;99.90;;;;;;5034036;28;20060;-62
2023/06/11 01:30:17;;;;;;;14.05;9.90;;;17.30;99.90;;;;;;5051064;28;20044;-62
2023/06/11 01:32:45;;;;;;;14.85;8.93;;;17.30;99.90;;;;;;5033692;28;20040;-62
2023/06/11 01:35:12;;;;;;;15.20;10.10;;;17.20;99.90;;;;;;5033729;28;20166;-62
2023/06/11 01:37:38;;;;;;;15.43;9.00;;;17.30;99.90;;;;;;5032964;28;20041;-62
2023/06/11 01:40:05;;;;;;;13.77;8.27;;;17.20;99.90;;;;;;5033762;28;20132;-62
2023/06/11 01:42:31;;;;;;;14.82;9.70;;;17.20;99.90;;;;;;5040335;28;20080;-62
2023/06/11 01:44:56;;;;;;;14.68;8.98;;;17.20;99.90;;;;;;5032707;28;20045;-62
2023/06/11 01:47:22;;;;;;;11.90;8.98;;;17.20;99.90;;;;;;5033990;28;20048;-62
2023/06/11 01:49:47;;;;;;;13.23;9.05;;;17.20;99.90;;;;;;5050557;28;20073;-62
2023/06/11 01:52:13;;;;;;;14.32;8.95;;;17.10;99.90;;;;;;5033583;28;20044;-62
2023/06/11 01:54:39;;;;;;;13.30;9.00;;;17.10;99.90;;;;;;5051205;28;20049;-62
2023/06/11 01:57:06;;;;;;;15.88;9.52;;;17.10;99.90;;;;;;5034130;28;20040;-62
2023/06/11 01:59:32;;;;;;;13.88;9.77;;;17.10;99.90;;;;;;5036545;28;20406;-62
2023/06/11 02:01:57;;;;;;;10.55;9.18;;;17.10;99.90;;;;;;5054975;28;20052;-62
2023/06/11 02:04:23;;;;;;;16.95;9.45;;;17.00;99.90;;;;;;5036273;28;20037;-62
2023/06/11 02:06:50;;;;;;;16.20;10.80;;;17.00;99.90;;;;;;5054751;28;20485;-62
2023/06/11 02:09:15;;;;;;;11.80;8.68;;;17.00;99.90;;;;;;5054807;28;20041;-62
2023/06/11 02:11:41;;;;;;;13.77;9.50;;;17.00;99.90;;;;;;5020122;28;20397;-62
2023/06/11 02:14:07;;;;;;;13.18;9.52;;;17.00;99.90;;;;;;5055296;28;20617;-62
2023/06/11 02:16:32;;;;;;;14.80;9.95;;;17.00;99.90;;;;;;5036975;28;20044;-62
2023/06/11 02:18:58;;;;;;;14.52;9.43;;;17.00;99.90;;;;;;5053891;28;20033;-62
2023/06/11 02:21:24;;;;;;;12.38;10.30;;;17.00;99.90;;;;;;5054531;28;20497;-62
2023/06/11 02:23:49;;;;;;;13.25;9.27;;;17.00;99.90;;;;;;5037034;28;20048;-62
2023/06/11 02:26:15;;;;;;;12.95;9.82;;;17.00;99.90;;;;;;5055520;28;20466;-62
2023/06/11 02:28:41;;;;;;;13.05;10.50;;;17.00;99.90;;;;;;5056669;28;20038;-62
2023/06/11 02:31:06;;;;;;;12.50;9.57;;;17.00;99.90;;;;;;5056881;28;20039;-62
2023/06/11 02:33:32;;;;;;;15.95;9.88;;;17.00;99.90;;;;;;5056085;28;20100;-62
2023/06/11 02:35:57;;;;;;;13.27;9.48;;;17.00;99.90;;;;;;5074389;28;20504;-62
2023/06/11 02:38:23;;;;;;;11.25;10.07;;;17.00;99.90;;;;;;5039892;28;20049;-62
2023/06/11 02:40:49;;;;;;;12.00;9.82;;;17.00;99.90;;;;;;5055882;28;20405;-62
2023/06/11 02:43:14;;;;;;;12.07;9.48;;;17.00;99.90;;;;;;5074173;28;20052;-62
2023/06/11 02:45:40;;;;;;;11.93;9.75;;;17.00;99.90;;;;;;5056266;28;20040;-62
2023/06/11 02:48:06;;;;;;;13.25;9.93;;;17.00;99.90;;;;;;5073518;28;20093;-62
2023/06/11 02:50:31;;;;;;;14.70;11.15;;;17.00;99.90;;;;;;5074100;28;20109;-62
2023/06/11 02:52:57;;;;;;;13.82;10.15;;;17.00;99.90;;;;;;5073876;28;20051;-62
2023/06/11 02:55:23;;;;;;;12.68;10.23;;;16.90;99.90;;;;;;5055559;28;20040;-62
2023/06/11 02:57:48;;;;;;;12.20;10.13;;;16.90;99.90;;;;;;5056098;28;20543;-62
2023/06/11 03:00:14;;;;;;;12.05;10.27;;;16.90;99.90;;;;;;5073451;28;20505;-62
2023/06/11 03:02:40;;;;;;;14.65;11.20;;;16.90;99.90;;;;;;5055817;28;20444;-62
2023/06/11 03:05:06;;;;;;;12.70;10.30;;;16.90;99.90;;;;;;5056165;28;20068;-62
2023/06/11 03:07:32;;;;;;;12.50;9.63;;;16.90;99.90;;;;;;5055260;28;20040;-62
2023/06/11 03:09:57;;;;;;;16.08;11.82;;;16.90;99.90;;;;;;5055261;28;20047;-62
2023/06/11 03:12:23;;;;;;;12.57;10.00;;;16.80;99.90;;;;;;5069344;28;20035;-62
2023/06/11 03:14:49;;;;;;;14.77;10.98;;;16.80;99.90;;;;;;5034896;28;20049;-62
2023/06/11 03:17:14;;;;;;;12.93;10.95;;;16.70;99.90;;;;;;5019365;28;20123;-62
2023/06/11 03:19:40;;;;;;;13.77;10.88;;;16.80;99.90;;;;;;5053955;28;20121;-62
2023/06/11 03:22:06;;;;;;;13.77;10.23;;;16.80;99.90;;;;;;5052878;28;20041;-62
2023/06/11 03:24:31;;;;;;;11.55;10.18;;;16.70;99.90;;;;;;5053405;28;20053;-62
2023/06/11 03:26:57;;;;;;;13.20;10.35;;;16.70;99.90;;;;;;5053382;28;20052;-62
2023/06/11 03:29:23;;;;;;;11.32;10.13;;;16.70;99.90;;;;;;5052768;28;20041;-63
2023/06/11 03:31:48;;;;;;;13.88;10.73;;;16.70;99.90;;;;;;5035599;28;20036;-62
2023/06/11 03:34:14;;;;;;;13.93;10.18;;;16.70;99.90;;;;;;5053316;28;20044;-62
2023/06/11 03:36:39;;;;;;;12.88;10.25;;;16.70;99.90;;;;;;5052456;28;20037;-62
2023/06/11 03:39:05;;;;;;;14.70;10.73;;;16.60;99.90;;;;;;5035875;28;20398;-62
2023/06/11 03:41:31;;;;;;;14.57;10.73;;;16.70;99.90;;;;;;5053330;28;20474;-62
2023/06/11 03:43:56;;;;;;;13.00;10.60;;;16.70;99.90;;;;;;5034254;28;20064;-62
2023/06/11 03:46:23;;;;;;;12.60;10.65;;;16.70;99.90;;;;;;5035106;28;20269;-62
2023/06/11 03:48:48;;;;;;;12.90;10.20;;;16.70;99.90;;;;;;5035237;28;20053;-62
2023/06/11 03:51:15;;;;;;;14.13;11.77;;;16.70;99.90;;;;;;5018045;28;20474;-62
2023/06/11 03:53:41;;;;;;;12.93;11.02;;;16.70;99.90;;;;;;5049643;28;20048;-62
2023/06/11 03:56:07;;;;;;;12.20;10.55;;;16.70;99.90;;;;;;5053098;28;20043;-62
2023/06/11 03:58:32;;;;;;;17.30;10.98;;;16.70;99.90;;;;;;5034248;28;20076;-62
2023/06/11 04:00:58;;;;;;;11.68;10.30;;;16.70;99.90;;;;;;5034898;28;20049;-62
2023/06/11 04:03:24;;;;;;;12.13;10.38;;;16.80;99.90;;;;;;5032474;28;20120;-62
2023/06/11 04:05:50;;;;;;;14.20;10.88;;;16.80;99.90;;;;;;5072278;28;20032;-62
2023/06/11 04:08:15;;;;;;;13.80;11.25;;;16.80;99.90;;;;;;5071543;28;20048;-62
2023/06/11 04:10:41;;;;;;;12.52;10.10;;;16.80;99.90;;;;;;5053939;28;20043;-62
2023/06/11 04:13:07;;;;;;;15.38;10.55;;;16.90;99.90;;;;;;5054894;28;20048;-62
2023/06/11 04:15:32;;;;;;;12.25;10.10;;;16.90;99.90;;;;;;5072209;28;20477;-62
2023/06/11 04:17:58;;;;;;;13.45;11.02;;;16.90;99.90;;;;;;5071501;28;20044;-62
2023/06/11 04:20:24;;;;;;;13.40;11.02;;;17.00;99.90;;;;;;5054673;28;20128;-62
2023/06/11 04:22:49;;;;;;;11.52;10.32;;;17.00;99.90;;;;;;5053117;28;20123;-62
2023/06/11 04:25:16;;;;;;;13.25;10.93;;;17.00;99.90;;;;;;5071424;28;20071;-62
2023/06/11 04:27:43;;;;;;;11.80;10.38;;;17.00;99.90;;;;;;5037968;28;20041;-62
2023/06/11 04:30:10;;;;;;;12.35;10.57;;;17.10;99.90;;;;;;5072251;28;20048;-62
2023/06/11 04:32:36;;;;;;;14.18;11.43;;;17.10;99.90;;;;;;5033847;28;20037;-62
2023/06/11 04:35:03;;;;;;;12.63;10.13;;;17.20;99.90;;;;;;5034434;28;20041;-62
2023/06/11 04:37:30;;;;;;;13.30;10.93;;;17.20;99.90;;;;;;5034551;28;20064;-62
2023/06/11 04:40:04;;;;;;;14.98;11.15;;;17.20;99.90;;;;;;5033385;28;20091;-62
2023/06/11 04:42:30;;;;;;;13.00;10.67;;;17.30;99.90;;;;;;5051847;28;20053;-62
2023/06/11 04:44:56;;;;;;;12.80;11.38;;;17.30;99.90;;;;;;5051869;28;20460;-62
2023/06/11 04:47:22;;;;;;;12.80;10.88;;;17.30;99.90;;;;;;5016928;28;20040;-62
2023/06/11 04:49:52;;;;;;;13.27;11.88;;;17.40;99.90;;;;;;5051790;28;20513;-62
2023/06/11 04:52:17;;;;;;;13.75;12.10;;;17.40;99.90;;;;;;5034397;28;20399;-62
2023/06/11 04:54:45;;;;;;;13.90;11.27;;;17.50;99.90;;;;;;5044844;28;20040;-62
2023/06/11 04:57:13;;;;;;;11.68;10.40;;;17.50;99.90;;;;;;5033979;28;20124;-62
2023/06/11 04:59:39;;;;;;;12.23;10.88;;;17.60;99.90;;;;;;5033643;28;20045;-62
2023/06/11 05:02:05;;;;;;;13.65;11.43;;;17.60;99.90;;;;;;5035688;28;20410;-62
2023/06/11 05:04:31;;;;;;;12.35;10.55;;;17.70;99.90;;;;;;5042471;28;20086;-62
2023/06/11 05:07:00;;;;;;;14.98;10.80;;;17.80;99.90;;;;;;5053344;28;20032;-62
2023/06/11 05:09:25;;;;;;;12.70;10.70;;;17.90;99.90;;;;;;5054004;28;20048;-62
2023/06/11 05:11:51;;;;;;;16.05;11.30;;;18.00;99.90;;;;;;5071516;28;20029;-62
2023/06/11 05:14:17;;;;;;;14.40;11.15;;;18.00;99.90;;;;;;5052315;28;20063;-62
2023/06/11 05:16:42;;;;;;;12.30;11.00;;;18.10;99.90;;;;;;5036822;28;20044;-62
2023/06/11 05:19:09;;;;;;;13.43;11.05;;;18.20;99.90;;;;;;5072125;28;20058;-62
2023/06/11 05:21:34;;;;;;;15.68;11.57;;;18.30;99.90;;;;;;5069886;28;20466;-62
2023/06/11 05:24:07;;;;;;;11.88;10.60;;;18.40;99.90;;;;;;5051486;28;20119;-62
2023/06/11 05:26:36;;;;;;;13.25;11.60;;;18.50;99.90;;;;;;5051688;28;20044;-62
2023/06/11 05:29:03;;;;;;;17.95;11.32;;;18.60;99.90;;;;;;5016585;28;20041;-62
2023/06/11 05:31:35;;;;;;;13.63;11.07;;;18.60;99.90;;;;;;5034370;28;20060;-62
2023/06/11 05:34:01;;;;;;;12.38;9.98;;;18.70;99.90;;;;;;5053972;28;20049;-62
2023/06/11 05:36:27;;;;;;;15.55;11.30;;;18.80;99.90;;;;;;5037124;28;20087;-62
2023/06/11 05:38:53;;;;;;;14.88;12.02;;;18.90;99.90;;;;;;5021091;28;20045;-62
2023/06/11 05:41:20;;;;;;;12.82;11.00;;;19.00;99.90;;;;;;5055340;28;20074;-62
2023/06/11 05:43:46;;;;;;;12.00;10.73;;;19.10;99.90;;;;;;5054329;28;20053;-62
2023/06/11 05:46:15;;;;;;;13.05;11.55;;;19.20;99.90;;;;;;5055177;28;20091;-62
2023/06/11 05:48:43;;;;;;;13.10;11.20;;;19.30;99.90;;;;;;5020828;28;20045;-64
2023/06/11 05:51:09;;;;;;;13.05;11.25;;;19.40;99.90;;;;;;5054790;28;20115;-62
2023/06/11 05:53:35;;;;;;;12.13;10.93;;;19.50;99.90;;;;;;5055568;28;20033;-62
2023/06/11 05:56:03;;;;;;;16.27;10.80;;;19.60;99.90;;;;;;5057188;28;20051;-62
2023/06/11 05:58:32;;;;;;;15.98;12.65;;;19.70;99.90;;;;;;5056850;28;20052;-62
2023/06/11 06:01:01;;;;;;;12.13;10.93;;;19.80;99.90;;;;;;5075222;28;20055;-62
2023/06/11 06:03:31;;;;;;;13.48;11.10;;;19.90;99.90;;;;;;5073947;28;20494;-62
2023/06/11 06:05:59;;;;;;;13.27;11.80;;;20.00;99.90;;;;;;5074992;28;20435;-62
2023/06/11 06:08:28;;;;;;;12.35;11.10;;;20.10;99.90;;;;;;5040315;28;20044;-62
2023/06/11 06:10:55;;;;;;;12.52;11.15;;;20.20;99.90;;;;;;5056179;28;20072;-62
2023/06/11 06:13:24;;;;;;;15.77;12.15;;;20.30;99.90;;;;;;5074316;28;20089;-63
2023/06/11 06:15:50;;;;;;;13.70;11.10;;;20.40;99.90;;;;;;5057183;28;20432;-62
2023/06/11 06:18:16;;;;;;;12.55;11.20;;;20.50;99.90;;;;;;5056122;28;20036;-62
2023/06/11 06:20:42;;;;;;;12.90;11.07;;;20.50;99.90;;;;;;5047693;28;20049;-62
2023/06/11 06:23:09;;;;;;;12.57;11.02;;;20.60;99.90;;;;;;5058840;28;20500;-62
2023/06/11 06:25:37;;;;;;;12.65;10.75;;;20.70;99.90;;;;;;5044452;28;20098;-62
2023/06/11 06:28:06;;;;;;;12.88;10.82;;;20.70;99.90;;;;;;5056076;28;20046;-62
2023/06/11 06:30:35;;;;;;;13.30;11.57;;;20.80;99.90;;;;;;5065885;28;20366;-61
2023/06/11 06:33:01;;;;;;;12.38;10.90;;;20.90;99.90;;;;;;5047415;28;20452;-62
2023/06/11 06:35:29;;;;;;;11.90;10.68;;;21.00;99.90;;;;;;5039275;28;20040;-62
2023/06/11 06:37:56;;;;;;;11.35;10.15;;;21.10;99.90;;;;;;5069879;28;20043;-62
2023/06/11 06:40:21;;;;;;;13.13;11.23;;;21.20;99.90;;;;;;5073554;28;20492;-61
2023/06/11 06:42:47;;;;;;;11.02;9.77;;;21.20;99.90;;;;;;5054936;28;20561;-61
2023/06/11 06:45:13;;;;;;;12.13;10.88;;;21.30;99.90;;;;;;5072275;28;20493;-62
2023/06/11 06:47:39;;;;;;;11.98;10.43;;;21.40;99.90;;;;;;5073540;28;20044;-62
2023/06/11 06:50:05;;;;;;;11.95;10.13;;;21.50;99.90;;;;;;5074127;28;20043;-62
2023/06/11 06:52:30;;;;;;;10.80;9.35;;;21.60;99.90;;;;;;5066167;28;20050;-62
2023/06/11 06:54:56;;;;;;;11.32;9.50;;;21.80;99.90;;;;;;5073445;28;20052;-62
2023/06/11 06:57:22;;;;;;;11.52;9.75;;;21.80;99.90;;;;;;5040004;28;20465;-62
2023/06/11 06:59:48;;;;;;;10.65;9.15;;;21.90;99.90;;;;;;5059547;28;20119;-61
2023/06/11 07:02:14;;;;;;;10.77;9.48;;;22.00;99.90;;;;;;5056016;28;20524;-62
2023/06/11 07:04:41;;;;;;;12.35;10.15;;;22.00;99.90;;;;;;5053781;28;20041;-62
2023/06/11 07:07:07;;;;;;;11.63;9.25;;;22.20;99.90;;;;;;5033721;28;20054;-62
2023/06/11 07:09:33;;;;;;;11.48;9.70;;;22.30;99.90;;;;;;5051039;28;20601;-61
2023/06/11 07:11:58;;;;;;;11.82;9.85;;;22.30;99.90;;;;;;5035042;28;20409;-60
2023/06/11 07:14:24;;;;;;;11.85;9.43;;;22.40;99.90;;;;;;5056693;28;20117;-60
2023/06/11 07:16:50;;;;;;;10.40;9.30;;;22.50;99.90;;;;;;5064690;28;20131;-60
2023/06/11 07:19:15;;;;;;;12.18;10.18;;;22.50;99.90;;;;;;5065027;28;20157;-61
2023/06/11 07:21:41;;;;;;;11.15;10.02;;;22.60;99.90;;;;;;5050996;28;20055;-60
2023/06/11 07:24:07;;;;;;;11.23;9.48;;;22.70;99.90;;;;;;5033942;28;20468;-60
2023/06/11 07:26:33;;;;;;;10.88;9.68;;;22.70;99.90;;;;;;5033660;28;20175;-61
2023/06/11 07:28:59;;;;;;;11.23;10.07;;;22.80;99.90;;;;;;5050380;28;20417;-60
2023/06/11 07:31:26;;;;;;;11.05;9.85;;;22.80;99.90;;;;;;5052218;28;20040;-60
2023/06/11 07:33:52;;;;;;;12.02;9.50;;;22.90;99.90;;;;;;5040782;28;20033;-60
2023/06/11 07:36:18;;;;;;;11.27;9.25;;;23.00;99.90;;;;;;5050859;28;20346;-60
2023/06/11 07:38:44;;;;;;;11.40;9.77;;;23.00;99.90;;;;;;5052522;28;20043;-61
2023/06/11 07:41:11;;;;;;;11.93;9.38;;;23.20;99.90;;;;;;5043705;28;20055;-61
2023/06/11 07:43:37;;;;;;;10.38;8.70;;;23.30;99.90;;;;;;5052396;28;20057;-61
2023/06/11 07:46:03;;;;;;;11.00;9.88;;;23.40;99.90;;;;;;5034952;28;20088;-61
2023/06/11 07:48:30;;;;;;;11.65;10.10;;;23.40;99.90;;;;;;5066148;28;20142;-61
2023/06/11 07:50:57;;;;;;;13.40;9.13;;;23.50;99.90;;;;;;5030432;28;20048;-61
2023/06/11 07:53:22;;;;;;;13.93;9.93;;;23.60;99.90;;;;;;5034794;28;20044;-60
2023/06/11 07:55:54;;;;;;;11.20;9.77;;;23.60;99.90;;;;;;5037690;28;20040;-60
2023/06/11 07:58:20;;;;;;;11.68;9.95;;;23.60;99.90;;;;;;5042825;28;20037;-60
2023/06/11 08:00:45;;;;;;;10.68;9.57;;;23.60;99.90;;;;;;5042667;28;20041;-60
2023/06/11 08:03:11;;;;;;;11.93;9.55;;;23.70;99.90;;;;;;5068272;28;20040;-60
2023/06/11 08:05:37;;;;;;;11.43;10.00;;;23.80;99.90;;;;;;5047473;28;20167;-60
2023/06/11 08:08:08;;;;;;;11.75;9.98;;;23.90;99.90;;;;;;5049856;28;20093;-60
2023/06/11 08:10:34;;;;;;;12.57;9.75;;;24.00;99.90;;;;;;5067304;28;20040;-60
2023/06/11 08:13:00;;;;;;;11.02;9.90;;;24.10;99.90;;;;;;5054324;28;20077;-60
2023/06/11 08:15:26;;;;;;;12.05;9.45;;;24.20;99.90;;;;;;5052609;28;20134;-60
2023/06/11 08:17:52;;;;;;;13.40;10.18;;;24.20;99.90;;;;;;5044805;28;20064;-60
2023/06/11 08:20:18;;;;;;;11.30;9.20;;;24.20;99.90;;;;;;5015490;28;20512;-60
2023/06/11 08:22:44;;;;;;;11.25;9.60;;;24.30;99.90;;;;;;5063415;28;20040;-59
2023/06/11 08:25:10;;;;;;;12.57;10.02;;;24.40;99.90;;;;;;5061587;28;20045;-60
2023/06/11 08:27:36;;;;;;;10.77;9.15;;;24.50;99.90;;;;;;5038940;28;20059;-60
2023/06/11 08:30:03;;;;;;;12.27;9.27;;;24.60;99.90;;;;;;5044492;28;20041;-60
2023/06/11 08:32:29;;;;;;;10.00;8.93;;;24.70;99.90;;;;;;5021255;28;20045;-60
2023/06/11 08:34:54;;;;;;;10.65;9.55;;;24.70;99.90;;;;;;5018913;28;20406;-61
2023/06/11 08:37:20;;;;;;;11.05;9.07;;;24.80;99.90;;;;;;5062789;28;20407;-61
2023/06/11 08:39:46;;;;;;;10.13;9.05;;;24.90;99.90;;;;;;5061136;28;20429;-62
2023/06/11 08:42:12;;;;;;;10.50;9.50;;;25.10;99.90;;;;;;5041897;28;20061;-61
2023/06/11 08:44:38;;;;;;;11.30;10.18;;;25.20;99.90;;;;;;5049496;28;20041;-61
2023/06/11 08:47:04;;;;;;;9.95;8.95;;;25.30;99.90;;;;;;5057795;28;20365;-61
2023/06/11 08:49:30;;;;;;;11.23;9.48;;;25.30;99.90;;;;;;5040622;28;20829;-62
2023/06/11 08:52:01;;;;;;;12.13;9.32;;;25.40;99.90;;;;;;5040880;28;20045;-60
2023/06/11 08:54:27;;;;;;;9.80;8.80;;;25.40;99.90;;;;;;5049340;28;20037;-60
2023/06/11 08:56:53;;;;;;;13.20;9.70;;;25.40;99.90;;;;;;5032898;28;20094;-60
2023/06/11 08:59:19;;;;;;;12.10;9.75;;;25.50;99.90;;;;;;5052579;28;20477;-61
2023/06/11 09:01:50;;;;;;;12.80;9.77;;;25.50;99.90;;;;;;5042816;28;20142;-61
2023/06/11 09:04:20;;;;;;;11.02;9.75;;;25.60;99.90;;;;;;5038912;28;20040;-61
2023/06/11 09:06:59;;;;;;;10.10;9.00;;;25.70;99.90;;;;;;5066649;28;20388;-61
2023/06/11 09:09:25;;;;;;;10.07;9.07;;;25.90;99.90;;;;;;5034813;28;20048;-61
2023/06/11 09:11:51;;;;;;;10.15;9.15;;;25.90;99.90;;;;;;5035886;28;20035;-62
2023/06/11 09:14:17;;;;;;;11.13;9.70;;;26.00;99.90;;;;;;5038903;28;20087;-62
2023/06/11 09:16:45;;;;;;;10.63;9.52;;;26.10;99.90;;;;;;5052817;28;20029;-62
2023/06/11 09:19:18;;;;;;;11.15;9.60;;;26.20;99.90;;;;;;5046282;28;20115;-62
2023/06/11 09:21:55;;;;;;;10.55;8.98;;;26.20;99.90;;;;;;5044642;28;20158;-60
2023/06/11 09:24:21;;;;;;;12.45;9.23;;;26.30;99.90;;;;;;5038978;28;20037;-61
2023/06/11 09:26:53;;;;;;;10.00;8.90;;;26.30;99.90;;;;;;5048689;28;20033;-61
2023/06/11 09:29:20;;;;;;;11.55;10.45;;;26.30;99.90;;;;;;5053747;28;21242;-60
2023/06/11 09:31:46;;;;;;;13.40;9.40;;;26.20;99.90;;;;;;5063417;28;20067;-61
2023/06/11 09:34:16;;;;;;;12.15;10.55;;;26.10;99.90;;;;;;5039608;28;20036;-61
2023/06/11 09:36:46;;;;;;;10.73;9.23;;;26.10;99.90;;;;;;5044554;28;20121;-61
2023/06/11 09:39:13;;;;;;;11.50;9.70;;;26.20;99.90;;;;;;5045741;28;20045;-61
2023/06/11 09:41:48;;;;;;;10.88;9.77;;;26.40;99.90;;;;;;5035311;28;20508;-61
2023/06/11 09:44:14;;;;;;;11.93;9.25;;;26.50;99.90;;;;;;5034003;28;20102;-61
2023/06/11 09:46:40;;;;;;;10.15;8.88;;;26.60;99.90;;;;;;5068653;28;20036;-61
2023/06/11 09:49:06;;;;;;;10.30;9.10;;;26.60;99.60;;;;;;5049852;28;20045;-61
2023/06/11 09:51:34;;;;;;;10.93;8.40;;;26.70;99.90;;;;;;5067836;28;20040;-62
2023/06/11 09:54:02;;;;;;;10.60;9.50;;;26.70;99.90;;;;;;5042167;28;20227;-62
2023/06/11 09:56:28;;;;;;;10.90;9.02;;;26.70;99.80;;;;;;5050133;28;20433;-62
2023/06/11 09:58:56;;;;;;;10.98;9.85;;;26.70;98.70;;;;;;5033744;28;20055;-62
2023/06/11 10:01:25;;;;;;;10.48;8.88;;;26.70;98.60;;;;;;5033944;28;20059;-62
2023/06/11 10:03:51;;;;;;;9.77;8.77;;;26.80;98.80;;;;;;5050374;28;20033;-62
2023/06/11 10:06:22;;;;;;;9.05;8.15;;;26.80;98.90;;;;;;5033202;28;20056;-62
2023/06/11 10:08:50;;;;;;;11.00;9.90;;;26.90;98.60;;;;;;5033835;28;20056;-62
2023/06/11 10:11:20;;;;;;;10.60;9.50;;;26.90;98.10;;;;;;5032661;28;20508;-61
2023/06/11 10:13:56;;;;;;;10.90;9.07;;;26.90;98.00;;;;;;5033545;28;20048;-61
2023/06/11 10:16:22;;;;;;;9.15;8.05;;;27.00;97.10;;;;;;5033158;28;20047;-61
2023/06/11 10:18:50;;;;;;;9.73;8.73;;;27.20;98.00;;;;;;5033430;28;20049;-60
2023/06/11 10:21:15;;;;;;;9.93;8.50;;;27.10;97.70;;;;;;5050930;28;20051;-61
2023/06/11 10:23:42;;;;;;;9.70;8.80;;;27.20;97.80;;;;;;5056144;28;20045;-60
2023/06/11 10:26:12;;;;;;;10.30;8.63;;;27.20;97.30;;;;;;5075581;28;20370;-60
2023/06/11 10:28:41;;;;;;;9.57;8.63;;;27.20;96.70;;;;;;5052689;28;20037;-60
2023/06/11 10:31:07;;;;;;;9.55;8.60;;;27.30;96.80;;;;;;5054403;28;20465;-60
2023/06/11 10:33:42;;;;;;;10.45;8.60;;;27.40;96.90;;;;;;5054492;28;20033;-60
2023/06/11 10:36:08;;;;;;;9.20;8.20;;;27.50;95.80;;;;;;5038072;28;20041;-60
2023/06/11 10:38:38;;;;;;;9.13;8.10;;;27.70;95.40;;;;;;5036382;28;20041;-60
2023/06/11 10:41:04;;;;;;;9.00;8.10;;;27.80;95.80;;;;;;5037182;28;20056;-60
2023/06/11 10:43:32;;;;;;;10.02;8.23;;;27.90;95.10;;;;;;5059918;28;20181;-60
2023/06/11 10:46:07;;;;;;;9.82;7.78;;;28.00;94.70;;;;;;5064070;28;20128;-61
2023/06/11 10:48:33;;;;;;;9.63;8.38;;;28.00;94.60;;;;;;5050714;28;20039;-61
2023/06/11 10:51:12;;;;;;;9.23;8.25;;;28.00;94.70;;;;;;5055488;28;20443;-61
2023/06/11 10:53:41;;;;;;;11.10;8.43;;;28.10;94.30;;;;;;5019346;28;20115;-61
2023/06/11 10:56:08;;;;;;;9.93;7.72;;;28.30;93.90;;;;;;5037330;28;20041;-61
2023/06/11 10:58:35;;;;;;;9.45;7.05;;;28.30;93.70;;;;;;5035677;28;20049;-61
2023/06/11 11:01:03;;;;;;;8.50;7.60;;;28.40;93.30;;;;;;5054153;28;20049;-61
2023/06/11 11:03:30;;;;;;;9.55;7.82;;;28.50;92.60;;;;;;5057346;28;20047;-61
2023/06/11 11:05:57;;;;;;;10.55;7.93;;;28.50;92.00;;;;;;5055378;28;20473;-61
2023/06/11 11:08:23;;;;;;;8.63;7.63;;;28.60;91.20;;;;;;5056289;28;20040;-62
2023/06/11 11:11:07;;;;;;;9.05;7.03;;;28.60;90.40;;;;;;5039453;28;20076;-62
2023/06/11 11:13:33;;;;;;;11.00;7.68;;;28.50;87.10;;;;;;5061471;28;20043;-62
2023/06/11 11:16:00;;;;;;;9.10;7.15;;;28.40;89.70;;;;;;5053850;28;20128;-62
2023/06/11 11:18:27;;;;;;;8.93;7.35;;;28.50;90.00;;;;;;5035755;28;20056;-62
2023/06/11 11:20:54;;;;;;;8.30;6.57;;;28.70;89.00;;;;;;5036020;28;20048;-62
2023/06/11 11:23:20;;;;;;;9.15;7.45;;;28.90;87.30;;;;;;5037414;28;20052;-62
2023/06/11 11:25:45;;;;;;;8.13;6.93;;;29.00;85.50;;;;;;5019403;28;20402;-61
2023/06/11 11:28:12;;;;;;;8.23;6.97;;;29.00;83.90;;;;;;5035304;28;20497;-62
2023/06/11 11:30:39;;;;;;;7.68;6.68;;;29.00;84.40;;;;;;5035076;28;20394;-60
2023/06/11 11:33:05;;;;;;;8.65;7.22;;;29.00;84.80;;;;;;5036910;28;20072;-61
2023/06/11 11:35:31;;;;;;;9.20;6.60;;;29.00;83.20;;;;;;5034999;28;20055;-61
2023/06/11 11:37:57;;;;;;;8.55;7.30;;;29.00;82.60;;;;;;5035621;28;20490;-61
2023/06/11 11:40:23;;;;;;;7.88;7.03;;;29.00;81.60;;;;;;5035391;28;20411;-61
2023/06/11 11:42:52;;;;;;;8.57;7.55;;;29.10;82.00;;;;;;5020906;28;20067;-61
2023/06/11 11:45:19;;;;;;;10.27;7.20;;;29.20;81.30;;;;;;5071272;28;20059;-61
2023/06/11 11:47:50;;;;;;;7.72;6.18;;;29.10;79.50;;;;;;5072828;28;20044;-61
2023/06/11 11:50:30;;;;;;;9.65;6.82;;;29.10;77.50;;;;;;5055544;28;20040;-61
2023/06/11 11:53:11;;;;;;;8.05;7.25;;;29.10;78.60;;;;;;5054740;28;20036;-61
2023/06/11 11:55:43;;;;;;;8.60;6.72;;;29.10;80.70;;;;;;5054788;28;20041;-61
2023/06/11 11:58:13;;;;;;;13.00;7.07;;;29.10;76.40;;;;;;5073034;28;20046;-61
2023/06/11 12:01:08;;;;;;;7.40;6.70;;;29.20;75.80;;;;;;5072814;28;20048;-61
2023/06/11 12:03:34;;;;;;;8.15;7.15;;;29.00;76.70;;;;;;5032629;28;20057;-61
2023/06/11 12:06:02;;;;;;;9.60;7.50;;;28.80;77.20;;;;;;5034837;28;20040;-61
2023/06/11 12:08:29;;;;;;;8.07;6.80;;;28.80;77.90;;;;;;5052800;28;20036;-61
2023/06/11 12:10:55;;;;;;;9.60;7.38;;;28.80;78.50;;;;;;5054962;28;20453;-60
2023/06/11 12:13:21;;;;;;;9.57;7.13;;;28.90;79.60;;;;;;5034774;28;20048;-62
2023/06/11 12:15:47;;;;;;;8.38;6.95;;;29.00;79.70;;;;;;5033935;28;20490;-61
2023/06/11 12:18:13;;;;;;;8.43;7.60;;;29.00;79.60;;;;;;5034973;28;20240;-62
2023/06/11 12:20:40;;;;;;;9.15;7.25;;;29.10;78.30;;;;;;5034858;28;20053;-61
2023/06/11 12:23:05;;;;;;;8.55;6.80;;;29.10;76.80;;;;;;5067659;28;20147;-62
2023/06/11 12:25:32;;;;;;;8.90;7.57;;;29.30;76.90;;;;;;5072371;28;20123;-61
2023/06/11 12:28:01;;;;;;;8.13;7.30;;;29.30;76.00;;;;;;5036111;28;20501;-62
2023/06/11 12:30:29;;;;;;;9.10;7.45;;;29.30;76.20;;;;;;5053536;28;20090;-61
2023/06/11 12:32:56;;;;;;;8.60;6.60;;;29.30;76.90;;;;;;5072400;28;20115;-60
2023/06/11 12:35:22;;;;;;;7.30;6.55;;;29.50;76.60;;;;;;5067677;28;20385;-60